Nearby METAR Reports

 

KSJC - San Jose, California, USA
Distance from station: NE 9mi, 14km
Updated: Sat, 21-Sep-2019 12:53pm PDT
Mostly cloudy
Mostly cloudy
 Wind from varies
Wind: varies 6 mph , 9 km/h
Temperature: 84°F , 29°C
Dew Point: 48°F , 9°C
Humidity: 29%
Barometer: 29.92 inHg , 1013.2 hPa
Clouds: Mostly cloudy
Visibility: 10 miles , 16 km
Cloud details: Few Clouds 1600 ft
Mostly cloudy 7500 ft
2019/09/21 19:53 KSJC 211953Z VRB05KT 10SM FEW016 BKN075 29/09 A2992 RMK AO2 SLP131 FU FEW016 FU BKN075 T02890089
KNUQ - Moffett Nas/Mtn, California, USA
Distance from station: N 9mi, 14km
Updated: Sat, 21-Sep-2019 12:56pm PDT

 
Barometer: 29.93 inHg , 1013.5 hPa
2019/09/21 19:56 KNUQ 211956Z A2993 RMK AO2 SLP139 PWINO $
 
KPAO - Palo Alto, California, USA
Distance from station: NNW 14mi, 23km
Updated: Sat, 21-Sep-2019 12:47pm PDT
Clear
Clear
 Wind from N
Wind: N 6 mph , 9 km/h
Temperature: 82°F , 28°C
Dew Point: 48°F , 9°C
Humidity: 30%
Barometer: 29.93 inHg , 1013.5 hPa
Clouds: Clear
Visibility: 10 miles , 16 km
2019/09/21 19:47 KPAO 211947Z 36005KT 10SM SKC 28/09 A2993
KRHV - San Jose/Reid, California, USA
Distance from station: ENE 12mi, 19km
Updated: Sat, 21-Sep-2019 12:47pm PDT
Clear
Clear
 Wind from WNW
Wind: WNW 6 mph , 9 km/h
Temperature: 82°F , 28°C
Dew Point: 46°F , 8°C
Humidity: 28%
Barometer: 29.93 inHg , 1013.5 hPa
Clouds: Clear
Visibility: 10 miles , 16 km
2019/09/21 19:47 KRHV 211947Z 30005KT 10SM SKC 28/08 A2993
 
KOAK - Oakland, California, USA
Distance from station: NNW 31mi, 50km
Updated: Sat, 21-Sep-2019 12:53pm PDT
Clear
Clear
 Wind from WSW
Wind: WSW 7 mph , 11 km/h
Temperature: 79°F , 26°C
Dew Point: 54°F , 12°C
Humidity: 42%
Barometer: 29.94 inHg , 1013.9 hPa
Clouds: Clear
Visibility: 10 miles , 16 km
2019/09/21 19:53 KOAK 211953Z 24006KT 10SM CLR 26/12 A2994 RMK AO2 SLP139 T02560122
KSQL - San Carlos Airpo, California, USA
Distance from station: NW 21mi, 34km
Updated: Sat, 21-Sep-2019 12:47pm PDT
Clear
Clear
 Wind from calm
Wind: Calm
Temperature: 82°F , 28°C
Dew Point: 48°F , 9°C
Humidity: 30%
Barometer: 29.94 inHg , 1013.9 hPa
Clouds: Clear
Visibility: 10 miles , 16 km
2019/09/21 19:47 KSQL 211947Z 00000KT 10SM SKC 28/09 A2994
 
KSFO - San Francisco, California, USA
Distance from station: NW 30mi, 49km
Updated: Sat, 21-Sep-2019 12:56pm PDT
Clear
Clear
 Wind from calm
Wind: Calm
Temperature: 82°F , 28°C
Dew Point: 46°F , 8°C
Humidity: 28%
Barometer: 29.93 inHg , 1013.5 hPa
Clouds: Clear
Visibility: 10 miles , 16 km
2019/09/21 19:56 KSFO 211956Z 00000KT 10SM CLR 28/08 A2993 RMK AO2 SLP136 T02780078
KE16 - San Martin, California, USA
Distance from station: ESE 27mi, 43km
Updated: Sat, 21-Sep-2019 1:15pm PDT
Clear
Clear
 Wind from NNW
Wind: NNW 7 mph , 11 km/h
Temperature: 84°F , 29°C
Dew Point: 45°F , 7°C
Humidity: 25%
Barometer: 29.93 inHg , 1013.5 hPa
Clouds: Clear
Visibility: 10 miles , 16 km
2019/09/21 20:15 KE16 212015Z AUTO 34006KT 10SM CLR 29/07 A2993 RMK AO2
 
KWVI - Watsonville, California, USA
Distance from station: SSE 27mi, 44km
Updated: Sat, 21-Sep-2019 12:53pm PDT
Clear
Clear
 Wind from SSW
Wind: SSW 5 mph , 7 km/h
Temperature: 86°F , 30°C
Dew Point: 46°F , 8°C
Humidity: 25%
Barometer: 29.92 inHg , 1013.2 hPa
Clouds: Clear
Visibility: 10 miles , 16 km
2019/09/21 19:53 KWVI 211953Z AUTO 21004KT 10SM CLR 30/08 A2992 RMK AO2 SLP129 T03000078 $
KHAF - Half Moon Bay, California, USA
Distance from station: WNW 31mi, 50km
Updated: Sat, 21-Sep-2019 1:20pm PDT
Clear
Clear
 Wind from NW
Wind: NW 14 mph , 22 km/h
Temperature: 75°F , 24°C
Dew Point: 59°F , 15°C
Humidity: 57%
Barometer: 29.93 inHg , 1013.5 hPa
Clouds: Clear
Visibility: 9 miles , 14 km
2019/09/21 20:20 KHAF 212020Z AUTO 32012KT 9SM CLR 24/15 A2993 RMK AO2
 
KHWD - Hayward, California, USA
Distance from station: N 28mi, 44km
Updated: Sat, 21-Sep-2019 12:54pm PDT
Clear
Clear
 Wind from W
Wind: W 10 mph , 17 km/h
Temperature: 79°F , 26°C
Dew Point: 50°F , 10°C
Humidity: 37%
Barometer: 29.93 inHg , 1013.5 hPa
Clouds: Clear
Visibility: 10 miles , 16 km
2019/09/21 19:54 KHWD 211954Z 27009KT 10SM CLR 26/10 A2993 RMK AO2 SLP145 T02610100
KLVK - Livermore, California, USA
Distance from station: NNE 31mi, 51km
Updated: Sat, 21-Sep-2019 12:53pm PDT
Clear
Clear
 Wind from ENE
Wind: ENE 12 mph , 19 km/h, Gust: 17 mph , 28 km/h
Temperature: 84°F , 29°C
Dew Point: 45°F , 7°C
Humidity: 25%
Barometer: 29.93 inHg , 1013.5 hPa
Clouds: Clear
Visibility: 10 miles , 16 km
2019/09/21 19:53 KLVK 211953Z 07010G15KT 10SM CLR 29/07 A2993 RMK AO2 SLP131 T02890067